Terminal Aerodrome Forecast
Issued by NWS Missoula, MT

Home | Current Version | Previous Version | Text Only | Print | Product List | Glossary On
Versions: 1 2 3 4 5 6 7 8 9 10 11 12 13 14
000
FTUS45 KMSO 202340
TAFMSO
TAF
KMSO 202340Z 2100/2124 VRB03KT P6SM BKN150
     FM211200 00000KT P6SM VCSH OVC050
     FM211400 22006KT P6SM -RA OVC035
     FM212000 30007KT P6SM VCSH BKN040=

USA.gov is the U.S. government's official web portal to all federal, state and local government web resources and services.